nws-alerts: Checking more than four warning/county codes can delay the loading of your pages. You should use a cron job to get the data.
EllijayWeather Station Historical Data
Daily Summary for February 8, 2019 Units:  English    Metric   Both
Daily Weekly Monthly Yearly Custom
  High: Low: Average:
Temperature: 64.6 °F 36.0 °F 46.8 °F
Dew Point: 61.2 °F 18.5 °F 34.9 °F
Humidity: 96% 37% 65%
Wind Speed: 13.0mph 0.0mph 1.2mph
Wind Gust: 15.0mph - -
Wind- - WSW
Pressure: 30.52 in 30.05 in -
Precipitation: 0.10 in    
Historical Graphs
 
 
Tabular Data for February 8, 2019
Time Temperature Dew Point Pressure Wind Wind Speed Wind Gust Humidity Rainfall Rate (Hourly) solar
00:04 64.2 °F 59.4 °F 30.05 in Calm     84% 0.00 in meteobridge W/m2
00:09 64.4 °F 59.5 °F 30.05 in Calm   2.0 mph 84% 0.00 in meteobridge W/m2
00:14 64.4 °F 59.5 °F 30.05 in Calm     84% 0.00 in meteobridge W/m2
00:19 64.4 °F 59.7 °F 30.05 in Calm     85% 0.00 in meteobridge W/m2
00:24 64.4 °F 59.7 °F 30.05 in Calm   1.0 mph 85% 0.00 in meteobridge W/m2
00:29 64.6 °F 59.9 °F 30.05 in Calm     85% 0.00 in meteobridge W/m2
00:34 64.6 °F 59.9 °F 30.05 in Calm     85% 0.00 in meteobridge W/m2
00:39 64.6 °F 60.6 °F 30.05 in Calm   1.0 mph 87% 0.01 in meteobridge W/m2
00:44 64.2 °F 60.6 °F 30.05 in Calm     88% 0.01 in meteobridge W/m2
00:49 64.0 °F 60.8 °F 30.05 in Calm     89% 0.01 in meteobridge W/m2
00:54 63.7 °F 60.6 °F 30.05 in Calm   1.0 mph 90% 0.01 in meteobridge W/m2
00:59 63.5 °F 60.8 °F 30.06 in Calm     91% 0.01 in meteobridge W/m2
01:04 63.3 °F 61.0 °F 30.06 in South 0.9 mph 4.0 mph 92% 0.01 in meteobridge W/m2
01:09 63.3 °F 61.0 °F 30.06 in South 0.9 mph 1.0 mph 92% 0.01 in meteobridge W/m2
01:14 63.3 °F 61.0 °F 30.06 in Calm   2.0 mph 92% 0.01 in meteobridge W/m2
01:19 63.1 °F 61.2 °F 30.07 in Calm   3.0 mph 93% 0.02 in meteobridge W/m2
01:24 62.8 °F 60.8 °F 30.07 in Calm   5.0 mph 93% 0.03 in meteobridge W/m2
01:29 62.4 °F 60.4 °F 30.07 in Calm   1.0 mph 93% 0.03 in meteobridge W/m2
01:34 62.1 °F 60.1 °F 30.08 in Calm   1.0 mph 93% 0.04 in meteobridge W/m2
01:39 61.5 °F 59.5 °F 30.08 in Calm   3.0 mph 93% 0.03 in meteobridge W/m2
01:44 61.2 °F 59.4 °F 30.08 in Calm   2.0 mph 94% 0.04 in meteobridge W/m2
01:49 60.8 °F 58.8 °F 30.08 in Calm     93% 0.04 in meteobridge W/m2
01:54 60.4 °F 58.5 °F 30.09 in Calm   2.0 mph 93% 0.04 in meteobridge W/m2
01:59 60.1 °F 58.1 °F 30.10 in Calm     93% 0.05 in meteobridge W/m2
02:04 59.5 °F 57.6 °F 30.10 in WNW 0.9 mph 6.0 mph 93% 0.06 in meteobridge W/m2
02:09 59.2 °F 57.4 °F 30.10 in NW 2.0 mph 12.0 mph 94% 0.06 in meteobridge W/m2
02:14 58.6 °F 56.7 °F 30.11 in NW 4.0 mph 9.0 mph 93% 0.06 in meteobridge W/m2
02:19 57.9 °F 55.2 °F 30.12 in East 4.0 mph 8.0 mph 91% 0.05 in meteobridge W/m2
02:24 56.8 °F 54.3 °F 30.12 in Calm   6.0 mph 91% 0.05 in meteobridge W/m2
02:29 56.1 °F 53.6 °F 30.12 in Calm   8.0 mph 91% 0.05 in meteobridge W/m2
02:34 55.8 °F 53.4 °F 30.13 in Calm   4.0 mph 92% 0.04 in meteobridge W/m2
02:39 55.2 °F 52.9 °F 30.13 in Calm   5.0 mph 92% 0.04 in meteobridge W/m2
02:44 54.9 °F 52.9 °F 30.13 in Calm   2.0 mph 93% 0.03 in meteobridge W/m2
02:49 54.7 °F 52.7 °F 30.13 in NNW 0.9 mph 2.0 mph 93% 0.04 in meteobridge W/m2
02:54 54.3 °F 52.7 °F 30.14 in Calm   3.0 mph 94% 0.04 in meteobridge W/m2
02:59 54.1 °F 52.5 °F 30.14 in Calm     94% 0.03 in meteobridge W/m2
03:04 54.0 °F 52.3 °F 30.14 in Calm     94% 0.03 in meteobridge W/m2
03:09 54.0 °F 52.3 °F 30.14 in Calm     94% 0.03 in meteobridge W/m2
03:14 54.0 °F 52.5 °F 30.14 in Calm     95% 0.03 in meteobridge W/m2
03:19 54.0 °F 52.5 °F 30.14 in Calm   1.0 mph 95% 0.03 in meteobridge W/m2
03:24 53.8 °F 52.3 °F 30.14 in Calm     95% 0.02 in meteobridge W/m2
03:29 53.6 °F 52.0 °F 30.14 in Calm   1.0 mph 94% 0.02 in meteobridge W/m2
03:34 53.4 °F 52.0 °F 30.14 in Calm     95% 0.02 in meteobridge W/m2
03:39 53.4 °F 52.0 °F 30.14 in Calm     95% 0.02 in meteobridge W/m2
03:44 53.4 °F 51.8 °F 30.14 in Calm     94% 0.02 in meteobridge W/m2
03:49 53.4 °F 52.0 °F 30.14 in Calm     95% 0.01 in meteobridge W/m2
03:54 53.2 °F 51.8 °F 30.14 in Calm     95% 0.01 in meteobridge W/m2
03:59 53.1 °F 51.6 °F 30.14 in Calm     95% 0.01 in meteobridge W/m2
04:04 53.1 °F 51.6 °F 30.14 in Calm     95% 0.00 in meteobridge W/m2
04:09 53.1 °F 52.0 °F 30.14 in Calm     96% 0.00 in meteobridge W/m2
04:14 52.9 °F 51.4 °F 30.14 in Calm     95% 0.00 in meteobridge W/m2
04:19 52.7 °F 51.6 °F 30.15 in Calm     96% 0.00 in meteobridge W/m2
04:24 52.5 °F 51.1 °F 30.14 in Calm     95% 0.00 in meteobridge W/m2
04:29 52.3 °F 50.7 °F 30.15 in Calm     94% 0.00 in meteobridge W/m2
04:34 52.2 °F 50.7 °F 30.16 in Calm     95% 0.00 in meteobridge W/m2
04:39 52.0 °F 50.5 °F 30.16 in Calm     95% 0.00 in meteobridge W/m2
04:44 51.8 °F 50.4 °F 30.16 in Calm     95% 0.00 in meteobridge W/m2
04:49 51.8 °F 50.4 °F 30.15 in Calm     95% 0.00 in meteobridge W/m2
04:54 51.6 °F 50.2 °F 30.16 in Calm   1.0 mph 95% 0.00 in meteobridge W/m2
04:59 51.6 °F 50.2 °F 30.17 in Calm     95% 0.00 in meteobridge W/m2
05:04 51.4 °F 50.0 °F 30.17 in Calm   1.0 mph 95% 0.00 in meteobridge W/m2
05:09 51.4 °F 50.0 °F 30.17 in Calm   3.0 mph 95% 0.00 in meteobridge W/m2
05:14 51.4 °F 49.8 °F 30.17 in West 2.0 mph 2.0 mph 94% 0.00 in meteobridge W/m2
05:19 51.4 °F 49.3 °F 30.17 in NW 2.9 mph 6.0 mph 92% 0.00 in meteobridge W/m2
05:24 51.4 °F 48.9 °F 30.18 in Calm   2.0 mph 91% 0.00 in meteobridge W/m2
05:29 51.3 °F 49.3 °F 30.18 in West 0.9 mph 4.0 mph 93% 0.00 in meteobridge W/m2
05:34 51.1 °F 48.0 °F 30.18 in Calm   5.0 mph 89% 0.00 in meteobridge W/m2
05:39 50.7 °F 47.8 °F 30.18 in Calm   3.0 mph 90% 0.00 in meteobridge W/m2
05:44 50.5 °F 47.1 °F 30.18 in Calm   1.0 mph 88% 0.00 in meteobridge W/m2
05:49 50.4 °F 47.3 °F 30.18 in NNW 0.9 mph 3.0 mph 89% 0.00 in meteobridge W/m2
05:54 50.2 °F 47.3 °F 30.18 in Calm     90% 0.00 in meteobridge W/m2
05:59 50.0 °F 47.8 °F 30.20 in Calm     92% 0.00 in meteobridge W/m2
06:04 49.8 °F 46.0 °F 30.20 in Calm   3.0 mph 87% 0.00 in meteobridge W/m2
06:09 49.5 °F 45.7 °F 30.19 in Calm   6.0 mph 87% 0.00 in meteobridge W/m2
06:14 49.3 °F 45.9 °F 30.20 in Calm   5.0 mph 88% 0.00 in meteobridge W/m2
06:19 48.9 °F 45.5 °F 30.21 in Calm   3.0 mph 88% 0.00 in meteobridge W/m2
06:24 48.7 °F 45.7 °F 30.21 in Calm     89% 0.00 in meteobridge W/m2
06:29 48.7 °F 45.3 °F 30.21 in Calm   4.0 mph 88% 0.00 in meteobridge W/m2
06:34 48.6 °F 45.5 °F 30.21 in Calm   1.0 mph 89% 0.00 in meteobridge W/m2
06:39 48.4 °F 45.3 °F 30.22 in Calm   3.0 mph 89% 0.00 in meteobridge W/m2
06:44 48.4 °F 45.3 °F 30.22 in West 2.9 mph 4.0 mph 89% 0.00 in meteobridge W/m2
06:49 48.2 °F 44.8 °F 30.23 in Calm   10.0 mph 88% 0.00 in meteobridge W/m2
06:54 48.0 °F 45.1 °F 30.23 in Calm   3.0 mph 90% 0.00 in meteobridge W/m2
06:59 47.8 °F 44.4 °F 30.24 in Calm   1.0 mph 88% 0.00 in meteobridge W/m2
07:04 47.7 °F 44.1 °F 30.24 in Calm     87% 0.00 in meteobridge W/m2
07:09 47.5 °F 43.5 °F 30.24 in WNW 0.9 mph 1.0 mph 86% 0.00 in meteobridge W/m2
07:14 47.3 °F 43.0 °F 30.24 in Calm   3.0 mph 85% 0.00 in meteobridge W/m2
07:19 46.9 °F 42.4 °F 30.24 in WNW 4.0 mph 4.0 mph 84% 0.00 in meteobridge W/m2
07:24 46.9 °F 42.4 °F 30.24 in North 4.0 mph 5.0 mph 84% 0.00 in meteobridge W/m2
07:29 46.8 °F 42.3 °F 30.24 in Calm   2.0 mph 84% 0.00 in meteobridge W/m2
07:34 46.4 °F 41.5 °F 30.25 in Calm     83% 0.00 in meteobridge W/m2
07:39 46.2 °F 41.4 °F 30.26 in Calm   3.0 mph 83% 0.00 in meteobridge W/m2
07:44 46.0 °F 41.5 °F 30.26 in NNW 0.9 mph 1.0 mph 84% 0.00 in meteobridge W/m2
07:49 45.9 °F 40.3 °F 30.27 in NW 4.0 mph 7.0 mph 81% 0.00 in meteobridge W/m2
07:54 45.7 °F 40.1 °F 30.27 in Calm   5.0 mph 81% 0.00 in meteobridge W/m2
07:59 45.5 °F 40.1 °F 30.27 in Calm   3.0 mph 81% 0.00 in meteobridge W/m2
08:04 45.3 °F 39.9 °F 30.27 in Calm   3.0 mph 81% 0.00 in meteobridge W/m2
08:09 45.1 °F 39.7 °F 30.28 in Calm   1.0 mph 81% 0.00 in meteobridge W/m2
08:14 45.1 °F 39.7 °F 30.28 in Calm   2.0 mph 81% 0.00 in meteobridge W/m2
08:19 45.0 °F 39.2 °F 30.29 in NW 2.0 mph 11.0 mph 80% 0.00 in meteobridge W/m2
08:24 45.0 °F 38.8 °F 30.29 in WNW 2.0 mph 4.0 mph 79% 0.00 in meteobridge W/m2
08:29 44.8 °F 39.0 °F 30.30 in WNW 0.9 mph 8.0 mph 80% 0.00 in meteobridge W/m2
08:34 44.8 °F 39.0 °F 30.31 in NNW 2.0 mph 11.0 mph 80% 0.00 in meteobridge W/m2
08:39 44.4 °F 39.2 °F 30.31 in West 4.9 mph 6.0 mph 82% 0.00 in meteobridge W/m2
08:44 44.2 °F 38.5 °F 30.31 in Calm   1.0 mph 80% 0.00 in meteobridge W/m2
08:49 43.9 °F 37.4 °F 30.32 in WNW 4.0 mph 6.0 mph 78% 0.00 in meteobridge W/m2
08:54 43.7 °F 37.2 °F 30.32 in Calm   4.0 mph 78% 0.00 in meteobridge W/m2
08:59 43.5 °F 37.0 °F 30.33 in West 2.9 mph 6.0 mph 78% 0.00 in meteobridge W/m2
09:04 43.3 °F 37.2 °F 30.32 in NW 2.0 mph 4.0 mph 79% 0.00 in meteobridge W/m2
09:09 43.3 °F 36.9 °F 30.32 in Calm   4.0 mph 78% 0.00 in meteobridge W/m2
09:14 43.5 °F 37.4 °F 30.33 in Calm     79% 0.00 in meteobridge W/m2
09:19 44.1 °F 37.6 °F 30.33 in Calm   3.0 mph 78% 0.00 in meteobridge W/m2
09:24 44.4 °F 36.7 °F 30.33 in WNW 2.0 mph 8.0 mph 74% 0.00 in meteobridge W/m2
09:29 44.6 °F 36.1 °F 30.33 in West 2.9 mph 5.0 mph 72% 0.00 in meteobridge W/m2
09:34 45.0 °F 35.8 °F 30.33 in NW 2.0 mph 8.0 mph 70% 0.00 in meteobridge W/m2
09:39 45.1 °F 36.0 °F 30.34 in West 2.0 mph 4.0 mph 70% 0.00 in meteobridge W/m2
09:44 45.3 °F 35.8 °F 30.34 in NW 0.9 mph 2.0 mph 69% 0.00 in meteobridge W/m2
09:49 45.5 °F 34.9 °F 30.34 in NNW 8.1 mph 8.0 mph 66% 0.00 in meteobridge W/m2
09:54 45.9 °F 36.0 °F 30.34 in North 2.0 mph 7.0 mph 68% 0.00 in meteobridge W/m2
09:59 46.4 °F 36.0 °F 30.34 in Calm   3.0 mph 67% 0.00 in meteobridge W/m2
10:04 46.6 °F 36.1 °F 30.34 in Calm   6.0 mph 67% 0.00 in meteobridge W/m2
10:09 46.8 °F 36.0 °F 30.34 in NNW 2.0 mph 6.0 mph 66% 0.00 in meteobridge W/m2
10:14 46.9 °F 35.4 °F 30.34 in Calm   7.0 mph 64% 0.00 in meteobridge W/m2
10:19 47.1 °F 35.2 °F 30.34 in Calm   9.0 mph 63% 0.00 in meteobridge W/m2
10:24 47.5 °F 36.3 °F 30.35 in Calm   5.0 mph 65% 0.00 in meteobridge W/m2
10:29 47.1 °F 33.1 °F 30.35 in NNW 2.0 mph 7.0 mph 58% 0.00 in meteobridge W/m2
10:34 46.9 °F 32.5 °F 30.35 in Calm   5.0 mph 57% 0.00 in meteobridge W/m2
10:39 46.9 °F 32.0 °F 30.35 in Calm   4.0 mph 56% 0.00 in meteobridge W/m2
10:44 47.1 °F 28.4 °F 30.36 in Calm   4.0 mph 48% 0.00 in meteobridge W/m2
10:49 47.1 °F 29.5 °F 30.36 in WNW 2.9 mph 4.0 mph 50% 0.00 in meteobridge W/m2
10:54 47.1 °F 28.9 °F 30.36 in North 4.0 mph 5.0 mph 49% 0.00 in meteobridge W/m2
10:59 46.9 °F 30.2 °F 30.36 in West 0.9 mph 4.0 mph 52% 0.00 in meteobridge W/m2
11:04 46.8 °F 30.9 °F 30.37 in North 2.0 mph 10.0 mph 54% 0.00 in meteobridge W/m2
11:09 46.0 °F 31.6 °F 30.38 in North 2.9 mph 4.0 mph 57% 0.00 in meteobridge W/m2
11:14 45.3 °F 30.9 °F 30.38 in Calm   3.0 mph 57% 0.00 in meteobridge W/m2
11:19 45.0 °F 31.1 °F 30.38 in NW 4.0 mph 6.0 mph 58% 0.00 in meteobridge W/m2
11:24 44.8 °F 31.8 °F 30.38 in NNE 0.9 mph 3.0 mph 60% 0.00 in meteobridge W/m2
11:29 44.8 °F 31.8 °F 30.38 in NW 2.0 mph 5.0 mph 60% 0.00 in meteobridge W/m2
11:34 45.0 °F 32.0 °F 30.38 in Calm   2.0 mph 60% 0.00 in meteobridge W/m2
11:39 45.1 °F 31.6 °F 30.38 in ENE 2.9 mph 3.0 mph 59% 0.00 in meteobridge W/m2
11:44 45.1 °F 32.0 °F 30.38 in ENE 6.0 mph 9.0 mph 60% 0.00 in meteobridge W/m2
11:49 45.3 °F 31.8 °F 30.38 in NNW 0.9 mph 4.0 mph 59% 0.00 in meteobridge W/m2
11:54 45.5 °F 32.4 °F 30.38 in WNW 2.0 mph 2.0 mph 60% 0.00 in meteobridge W/m2
11:59 45.9 °F 32.7 °F 30.38 in Calm   3.0 mph 60% 0.00 in meteobridge W/m2
12:04 46.0 °F 32.5 °F 30.38 in Calm   2.0 mph 59% 0.00 in meteobridge W/m2
12:09 46.4 °F 32.4 °F 30.38 in WNW 0.9 mph 3.0 mph 58% 0.00 in meteobridge W/m2
12:14 46.9 °F 32.5 °F 30.38 in NNW 2.9 mph 8.0 mph 57% 0.00 in meteobridge W/m2
12:19 47.1 °F 32.2 °F 30.38 in NE 2.0 mph 5.0 mph 56% 0.00 in meteobridge W/m2
12:24 47.5 °F 32.5 °F 30.38 in Calm   2.0 mph 56% 0.00 in meteobridge W/m2
12:29 47.7 °F 32.4 °F 30.38 in Calm   7.0 mph 55% 0.00 in meteobridge W/m2
12:34 47.7 °F 31.8 °F 30.39 in Calm   6.0 mph 54% 0.00 in meteobridge W/m2
12:39 47.5 °F 32.2 °F 30.39 in WNW 4.9 mph 5.0 mph 55% 0.00 in meteobridge W/m2
12:44 47.3 °F 32.0 °F 30.38 in NW 2.9 mph 6.0 mph 55% 0.00 in meteobridge W/m2
12:49 46.9 °F 31.6 °F 30.39 in NE 2.0 mph 4.0 mph 55% 0.00 in meteobridge W/m2
12:54 46.9 °F 32.0 °F 30.39 in Calm   2.0 mph 56% 0.00 in meteobridge W/m2
12:59 47.1 °F 31.8 °F 30.39 in Calm   1.0 mph 55% 0.00 in meteobridge W/m2
13:04 47.7 °F 30.0 °F 30.39 in North 2.9 mph 9.0 mph 50% 0.00 in meteobridge W/m2
13:09 47.7 °F 30.0 °F 30.39 in Calm   4.0 mph 50% 0.00 in meteobridge W/m2
13:14 47.7 °F 29.5 °F 30.39 in Calm   6.0 mph 49% 0.00 in meteobridge W/m2
13:19 47.5 °F 28.2 °F 30.38 in Calm   6.0 mph 47% 0.00 in meteobridge W/m2
13:24 47.5 °F 27.7 °F 30.39 in NNW 2.0 mph 6.0 mph 46% 0.00 in meteobridge W/m2
13:29 47.1 °F 28.9 °F 30.39 in Calm   8.0 mph 49% 0.00 in meteobridge W/m2
13:34 47.1 °F 28.9 °F 30.39 in Calm   7.0 mph 49% 0.00 in meteobridge W/m2
13:39 47.5 °F 29.3 °F 30.38 in NNW 2.9 mph 3.0 mph 49% 0.00 in meteobridge W/m2
13:44 47.7 °F 27.3 °F 30.38 in NNW 2.9 mph 7.0 mph 45% 0.00 in meteobridge W/m2
13:49 47.5 °F 27.7 °F 30.38 in NW 4.0 mph 4.0 mph 46% 0.00 in meteobridge W/m2
13:54 47.3 °F 27.5 °F 30.38 in West 0.9 mph 7.0 mph 46% 0.00 in meteobridge W/m2
13:59 47.3 °F 27.5 °F 30.38 in WNW 2.9 mph 10.0 mph 46% 0.00 in meteobridge W/m2
14:04 47.1 °F 27.3 °F 30.38 in NW 4.9 mph 6.0 mph 46% 0.00 in meteobridge W/m2
14:09 47.3 °F 28.0 °F 30.38 in Calm   4.0 mph 47% 0.00 in meteobridge W/m2
14:14 47.5 °F 29.3 °F 30.38 in Calm   1.0 mph 49% 0.00 in meteobridge W/m2
14:19 47.5 °F 28.2 °F 30.38 in WNW 4.0 mph 11.0 mph 47% 0.00 in meteobridge W/m2
14:24 46.9 °F 28.2 °F 30.38 in Calm   4.0 mph 48% 0.00 in meteobridge W/m2
14:29 46.8 °F 29.1 °F 30.39 in Calm     50% 0.00 in meteobridge W/m2
14:34 46.8 °F 28.0 °F 30.39 in Calm   5.0 mph 48% 0.00 in meteobridge W/m2
14:39 46.8 °F 26.1 °F 30.39 in NNW 2.0 mph 5.0 mph 44% 0.00 in meteobridge W/m2
14:44 46.9 °F 25.0 °F 30.39 in WNW 2.0 mph 7.0 mph 42% 0.00 in meteobridge W/m2
14:49 47.1 °F 24.6 °F 30.39 in ENE 0.9 mph 2.0 mph 41% 0.00 in meteobridge W/m2
14:54 47.5 °F 25.5 °F 30.39 in Calm   1.0 mph 42% 0.00 in meteobridge W/m2
14:59 47.5 °F 23.2 °F 30.39 in NNE 4.0 mph 9.0 mph 38% 0.00 in meteobridge W/m2
15:04 47.1 °F 24.6 °F 30.39 in WNW 0.9 mph 9.0 mph 41% 0.00 in meteobridge W/m2
15:09 46.9 °F 22.6 °F 30.39 in NW 2.9 mph 4.0 mph 38% 0.00 in meteobridge W/m2
15:14 46.9 °F 22.6 °F 30.40 in WNW 4.9 mph 5.0 mph 38% 0.00 in meteobridge W/m2
15:19 46.9 °F 22.6 °F 30.40 in NNW 6.9 mph 7.0 mph 38% 0.00 in meteobridge W/m2
15:24 46.6 °F 21.7 °F 30.40 in NW 2.0 mph 7.0 mph 37% 0.00 in meteobridge W/m2
15:29 46.6 °F 22.3 °F 30.40 in North 0.9 mph 7.0 mph 38% 0.00 in meteobridge W/m2
15:34 46.6 °F 21.7 °F 30.40 in Calm   5.0 mph 37% 0.00 in meteobridge W/m2
15:39 46.4 °F 22.1 °F 30.40 in Calm     38% 0.00 in meteobridge W/m2
15:44 46.2 °F 22.6 °F 30.40 in Calm     39% 0.00 in meteobridge W/m2
15:49 46.4 °F 22.1 °F 30.41 in Calm   4.0 mph 38% 0.00 in meteobridge W/m2
15:54 46.2 °F 21.9 °F 30.41 in NNW 0.9 mph 5.0 mph 38% 0.00 in meteobridge W/m2
15:59 46.0 °F 21.2 °F 30.41 in Calm   6.0 mph 37% 0.00 in meteobridge W/m2
16:04 45.7 °F 22.1 °F 30.41 in WNW 0.9 mph 2.0 mph 39% 0.00 in meteobridge W/m2
16:09 45.3 °F 21.2 °F 30.41 in NW 0.9 mph 5.0 mph 38% 0.00 in meteobridge W/m2
16:14 45.5 °F 22.6 °F 30.41 in Calm     40% 0.00 in meteobridge W/m2
16:19 45.9 °F 22.3 °F 30.41 in NNW 6.0 mph 9.0 mph 39% 0.00 in meteobridge W/m2
16:24 45.7 °F 20.8 °F 30.41 in Calm   10.0 mph 37% 0.00 in meteobridge W/m2
16:29 45.3 °F 20.7 °F 30.41 in Calm   8.0 mph 37% 0.00 in meteobridge W/m2
16:34 45.1 °F 21.7 °F 30.42 in WNW 0.9 mph 2.0 mph 39% 0.00 in meteobridge W/m2
16:39 45.1 °F 22.3 °F 30.42 in WNW 0.9 mph 4.0 mph 40% 0.00 in meteobridge W/m2
16:44 45.1 °F 21.0 °F 30.42 in Calm   7.0 mph 38% 0.00 in meteobridge W/m2
16:49 45.1 °F 21.0 °F 30.42 in Calm   4.0 mph 38% 0.00 in meteobridge W/m2
16:54 45.1 °F 21.7 °F 30.42 in Calm   4.0 mph 39% 0.00 in meteobridge W/m2
16:59 45.0 °F 22.1 °F 30.42 in Calm   10.0 mph 40% 0.00 in meteobridge W/m2
17:04 44.8 °F 22.5 °F 30.42 in Calm   5.0 mph 41% 0.00 in meteobridge W/m2
17:09 44.6 °F 22.3 °F 30.42 in NW 2.0 mph 7.0 mph 41% 0.00 in meteobridge W/m2
17:14 44.4 °F 22.8 °F 30.43 in NNE 2.0 mph 4.0 mph 42% 0.00 in meteobridge W/m2
17:19 44.2 °F 22.6 °F 30.43 in NW 4.9 mph 5.0 mph 42% 0.00 in meteobridge W/m2
17:24 44.1 °F 23.0 °F 30.43 in NNW 0.9 mph 9.0 mph 43% 0.00 in meteobridge W/m2
17:29 43.5 °F 23.5 °F 30.43 in Calm   1.0 mph 45% 0.00 in meteobridge W/m2
17:34 43.3 °F 23.9 °F 30.44 in Calm     46% 0.00 in meteobridge W/m2
17:39 43.0 °F 23.5 °F 30.44 in Calm   6.0 mph 46% 0.00 in meteobridge W/m2
17:44 42.8 °F 23.9 °F 30.44 in Calm   2.0 mph 47% 0.00 in meteobridge W/m2
17:49 42.4 °F 23.7 °F 30.45 in Calm   4.0 mph 47% 0.00 in meteobridge W/m2
17:54 42.3 °F 25.0 °F 30.45 in WNW 4.9 mph 5.0 mph 50% 0.00 in meteobridge W/m2
17:59 42.1 °F 23.4 °F 30.45 in Calm   5.0 mph 47% 0.00 in meteobridge W/m2
18:04 41.9 °F 23.2 °F 30.45 in NNW 0.9 mph 3.0 mph 47% 0.00 in meteobridge W/m2
18:09 41.7 °F 23.9 °F 30.46 in NW 0.9 mph 7.0 mph 49% 0.00 in meteobridge W/m2
18:14 41.5 °F 24.3 °F 30.46 in Calm     50% 0.00 in meteobridge W/m2
18:19 41.4 °F 24.6 °F 30.46 in Calm     51% 0.00 in meteobridge W/m2
18:24 41.2 °F 24.4 °F 30.46 in Calm   4.0 mph 51% 0.00 in meteobridge W/m2
18:29 41.2 °F 23.9 °F 30.47 in Calm   2.0 mph 50% 0.00 in meteobridge W/m2
18:34 40.8 °F 25.0 °F 30.47 in Calm     53% 0.00 in meteobridge W/m2
18:39 40.8 °F 24.1 °F 30.47 in Calm   4.0 mph 51% 0.00 in meteobridge W/m2
18:44 40.6 °F 25.3 °F 30.47 in Calm     54% 0.00 in meteobridge W/m2
18:49 40.5 °F 25.5 °F 30.48 in Calm   1.0 mph 55% 0.00 in meteobridge W/m2
18:54 40.3 °F 25.0 °F 30.47 in Calm   1.0 mph 54% 0.00 in meteobridge W/m2
18:59 39.9 °F 25.9 °F 30.47 in Calm     57% 0.00 in meteobridge W/m2
19:04 39.7 °F 24.4 °F 30.47 in NNE 0.9 mph 3.0 mph 54% 0.00 in meteobridge W/m2
19:09 39.7 °F 25.3 °F 30.48 in Calm     56% 0.00 in meteobridge W/m2
19:14 39.6 °F 26.1 °F 30.47 in Calm   2.0 mph 58% 0.00 in meteobridge W/m2
19:19 39.4 °F 24.6 °F 30.48 in WNW 4.0 mph 4.0 mph 55% 0.00 in meteobridge W/m2
19:24 39.4 °F 24.6 °F 30.48 in Calm   1.0 mph 55% 0.00 in meteobridge W/m2
19:29 39.4 °F 25.3 °F 30.48 in Calm     57% 0.00 in meteobridge W/m2
19:34 39.2 °F 24.8 °F 30.49 in Calm   1.0 mph 56% 0.00 in meteobridge W/m2
19:39 39.0 °F 24.6 °F 30.48 in Calm     56% 0.00 in meteobridge W/m2
19:44 39.0 °F 24.3 °F 30.48 in Calm   1.0 mph 55% 0.00 in meteobridge W/m2
19:49 39.0 °F 23.7 °F 30.49 in Calm   2.0 mph 54% 0.00 in meteobridge W/m2
19:54 39.0 °F 22.8 °F 30.49 in Calm   6.0 mph 52% 0.00 in meteobridge W/m2
19:59 39.2 °F 22.6 °F 30.49 in Calm   2.0 mph 51% 0.00 in meteobridge W/m2
20:04 39.4 °F 22.8 °F 30.49 in NW 4.0 mph 5.0 mph 51% 0.00 in meteobridge W/m2
20:09 39.4 °F 22.3 °F 30.49 in Calm   3.0 mph 50% 0.00 in meteobridge W/m2
20:14 39.4 °F 21.4 °F 30.49 in Calm   6.0 mph 48% 0.00 in meteobridge W/m2
20:19 39.4 °F 20.8 °F 30.49 in Calm   3.0 mph 47% 0.00 in meteobridge W/m2
20:24 39.4 °F 20.8 °F 30.49 in NW 10.1 mph 11.0 mph 47% 0.00 in meteobridge W/m2
20:29 39.4 °F 20.8 °F 30.49 in NNE 6.0 mph 6.0 mph 47% 0.00 in meteobridge W/m2
20:34 39.2 °F 20.7 °F 30.50 in NW 2.0 mph 7.0 mph 47% 0.00 in meteobridge W/m2
20:39 39.2 °F 20.7 °F 30.50 in Calm   5.0 mph 47% 0.00 in meteobridge W/m2
20:44 39.0 °F 21.0 °F 30.50 in Calm   2.0 mph 48% 0.00 in meteobridge W/m2
20:49 38.8 °F 20.8 °F 30.50 in Calm   2.0 mph 48% 0.00 in meteobridge W/m2
20:54 38.8 °F 20.8 °F 30.49 in Calm   5.0 mph 48% 0.00 in meteobridge W/m2
20:59 38.7 °F 20.1 °F 30.49 in Calm   6.0 mph 47% 0.00 in meteobridge W/m2
21:04 38.7 °F 21.2 °F 30.50 in WNW 0.9 mph 4.0 mph 49% 0.00 in meteobridge W/m2
21:09 38.7 °F 20.1 °F 30.49 in WNW 2.0 mph 6.0 mph 47% 0.00 in meteobridge W/m2
21:14 38.5 °F 19.9 °F 30.49 in NNW 0.9 mph 4.0 mph 47% 0.00 in meteobridge W/m2
21:19 38.5 °F 19.6 °F 30.50 in WNW 4.9 mph 6.0 mph 46% 0.00 in meteobridge W/m2
21:24 38.3 °F 19.8 °F 30.50 in NW 0.9 mph 2.0 mph 47% 0.00 in meteobridge W/m2
21:29 38.3 °F 19.8 °F 30.50 in WNW 2.9 mph 6.0 mph 47% 0.00 in meteobridge W/m2
21:34 38.1 °F 19.2 °F 30.51 in NNW 4.0 mph 12.0 mph 46% 0.00 in meteobridge W/m2
21:39 38.1 °F 20.1 °F 30.51 in Calm   5.0 mph 48% 0.00 in meteobridge W/m2
21:44 37.9 °F 18.5 °F 30.51 in NNW 4.9 mph 14.0 mph 45% 0.00 in meteobridge W/m2
21:49 37.9 °F 19.0 °F 30.51 in Calm   5.0 mph 46% 0.00 in meteobridge W/m2
21:54 37.8 °F 19.4 °F 30.50 in West 6.0 mph 13.0 mph 47% 0.00 in meteobridge W/m2
21:59 37.6 °F 19.6 °F 30.50 in Calm   2.0 mph 48% 0.00 in meteobridge W/m2
22:04 37.6 °F 19.6 °F 30.51 in Calm   6.0 mph 48% 0.00 in meteobridge W/m2
22:09 37.4 °F 19.6 °F 30.51 in ENE 2.9 mph 5.0 mph 48% 0.00 in meteobridge W/m2
22:14 37.2 °F 19.8 °F 30.51 in NW 13.0 mph 13.0 mph 49% 0.00 in meteobridge W/m2
22:19 37.2 °F 19.8 °F 30.51 in NW 2.0 mph 6.0 mph 49% 0.00 in meteobridge W/m2
22:24 37.0 °F 20.1 °F 30.51 in Calm   11.0 mph 50% 0.00 in meteobridge W/m2
22:29 36.9 °F 19.9 °F 30.51 in WNW 2.9 mph 7.0 mph 50% 0.00 in meteobridge W/m2
22:34 36.9 °F 20.5 °F 30.52 in NW 4.9 mph 8.0 mph 51% 0.00 in meteobridge W/m2
22:39 36.9 °F 20.8 °F 30.52 in Calm   10.0 mph 52% 0.00 in meteobridge W/m2
22:44 36.7 °F 20.3 °F 30.52 in NW 2.9 mph 11.0 mph 51% 0.00 in meteobridge W/m2
22:49 36.7 °F 20.7 °F 30.51 in North 2.9 mph 6.0 mph 52% 0.00 in meteobridge W/m2
22:54 36.7 °F 20.7 °F 30.51 in Calm   5.0 mph 52% 0.00 in meteobridge W/m2
22:59 36.3 °F 19.9 °F 30.50 in ENE 2.0 mph 9.0 mph 51% 0.00 in meteobridge W/m2
23:04 36.3 °F 20.8 °F 30.50 in Calm   1.0 mph 53% 0.00 in meteobridge W/m2
23:09 36.3 °F 20.8 °F 30.49 in SW 0.9 mph 5.0 mph 53% 0.00 in meteobridge W/m2
23:14 36.3 °F 21.2 °F 30.49 in West 4.9 mph 5.0 mph 54% 0.00 in meteobridge W/m2
23:19 36.3 °F 20.8 °F 30.50 in West 6.0 mph 15.0 mph 53% 0.00 in meteobridge W/m2
23:24 36.3 °F 20.8 °F 30.50 in NW 4.9 mph 10.0 mph 53% 0.00 in meteobridge W/m2
23:29 36.3 °F 20.8 °F 30.50 in NW 2.9 mph 5.0 mph 53% 0.00 in meteobridge W/m2
23:34 36.3 °F 21.2 °F 30.51 in NNW 2.9 mph 9.0 mph 54% 0.00 in meteobridge W/m2
23:39 36.1 °F 21.0 °F 30.51 in Calm   5.0 mph 54% 0.00 in meteobridge W/m2
23:44 36.1 °F 21.0 °F 30.51 in NW 6.0 mph 8.0 mph 54% 0.00 in meteobridge W/m2
23:49 36.1 °F 21.0 °F 30.51 in Calm   7.0 mph 54% 0.00 in meteobridge W/m2
23:54 36.0 °F 21.4 °F 30.52 in NW 8.9 mph 9.0 mph 55% 0.00 in meteobridge W/m2
23:59 36.0 °F 21.4 °F 30.52 in WNW 4.0 mph 5.0 mph 55% 0.00 in meteobridge W/m2
EllijayWeather
Compliments of Weather Underground - 2.5 mb